sensor_id;sensor_type;location;lat;lon;timestamp;temperature;humidity
57576;DHT22;43412;-33.800;150.804;2023-04-08T00:01:35;29.50;83.60
57576;DHT22;43412;-33.800;150.804;2023-04-08T00:04:02;29.60;83.60
57576;DHT22;43412;-33.800;150.804;2023-04-08T00:06:29;29.90;83.40
57576;DHT22;43412;-33.800;150.804;2023-04-08T00:08:57;29.30;81.50
57576;DHT22;43412;-33.800;150.804;2023-04-08T00:11:24;29.20;83.70
57576;DHT22;43412;-33.800;150.804;2023-04-08T00:13:52;29.10;82.60
57576;DHT22;43412;-33.800;150.804;2023-04-08T00:16:19;29.40;82.10
57576;DHT22;43412;-33.800;150.804;2023-04-08T00:18:46;29.60;82.00
57576;DHT22;43412;-33.800;150.804;2023-04-08T00:21:14;29.80;82.60
57576;DHT22;43412;-33.800;150.804;2023-04-08T00:23:43;29.90;80.60
57576;DHT22;43412;-33.800;150.804;2023-04-08T00:26:10;29.70;81.10
57576;DHT22;43412;-33.800;150.804;2023-04-08T00:28:38;29.80;81.90
57576;DHT22;43412;-33.800;150.804;2023-04-08T00:31:06;29.90;79.70
57576;DHT22;43412;-33.800;150.804;2023-04-08T00:33:34;29.70;79.10
57576;DHT22;43412;-33.800;150.804;2023-04-08T00:36:02;29.70;79.30
57576;DHT22;43412;-33.800;150.804;2023-04-08T00:38:29;29.80;80.50
57576;DHT22;43412;-33.800;150.804;2023-04-08T00:40:58;30.00;79.40
57576;DHT22;43412;-33.800;150.804;2023-04-08T00:43:25;29.90;79.50
57576;DHT22;43412;-33.800;150.804;2023-04-08T00:45:53;29.70;78.70
57576;DHT22;43412;-33.800;150.804;2023-04-08T00:48:23;29.70;80.20
57576;DHT22;43412;-33.800;150.804;2023-04-08T00:50:51;29.70;78.80
57576;DHT22;43412;-33.800;150.804;2023-04-08T00:53:19;29.80;79.30
57576;DHT22;43412;-33.800;150.804;2023-04-08T00:55:46;30.10;79.80
57576;DHT22;43412;-33.800;150.804;2023-04-08T00:58:16;30.40;79.60
57576;DHT22;43412;-33.800;150.804;2023-04-08T01:00:49;30.50;78.20
57576;DHT22;43412;-33.800;150.804;2023-04-08T01:03:41;30.30;77.80
57576;DHT22;43412;-33.800;150.804;2023-04-08T01:08:53;30.20;77.70
57576;DHT22;43412;-33.800;150.804;2023-04-08T01:11:23;30.30;79.40
57576;DHT22;43412;-33.800;150.804;2023-04-08T01:13:53;30.60;78.20
57576;DHT22;43412;-33.800;150.804;2023-04-08T01:16:24;30.10;78.90
57576;DHT22;43412;-33.800;150.804;2023-04-08T01:18:52;29.30;79.00
57576;DHT22;43412;-33.800;150.804;2023-04-08T01:21:21;29.20;80.50
57576;DHT22;43412;-33.800;150.804;2023-04-08T01:24:00;29.50;79.60
57576;DHT22;43412;-33.800;150.804;2023-04-08T01:26:29;29.50;79.40
57576;DHT22;43412;-33.800;150.804;2023-04-08T01:28:59;29.60;78.90
57576;DHT22;43412;-33.800;150.804;2023-04-08T01:31:28;28.70;79.20
57576;DHT22;43412;-33.800;150.804;2023-04-08T01:33:58;28.20;79.30
57576;DHT22;43412;-33.800;150.804;2023-04-08T01:36:28;27.60;81.20
57576;DHT22;43412;-33.800;150.804;2023-04-08T01:39:00;28.10;83.20
57576;DHT22;43412;-33.800;150.804;2023-04-08T01:41:29;28.70;81.30
57576;DHT22;43412;-33.800;150.804;2023-04-08T01:43:57;29.10;81.20
57576;DHT22;43412;-33.800;150.804;2023-04-08T01:46:26;29.50;81.30
57576;DHT22;43412;-33.800;150.804;2023-04-08T01:48:55;29.80;80.50
57576;DHT22;43412;-33.800;150.804;2023-04-08T01:51:23;29.90;79.80
57576;DHT22;43412;-33.800;150.804;2023-04-08T01:53:52;29.70;77.80
57576;DHT22;43412;-33.800;150.804;2023-04-08T01:56:21;29.30;78.60
57576;DHT22;43412;-33.800;150.804;2023-04-08T01:58:51;29.20;79.80
57576;DHT22;43412;-33.800;150.804;2023-04-08T02:01:21;29.30;81.00
57576;DHT22;43412;-33.800;150.804;2023-04-08T02:03:50;29.40;79.70
57576;DHT22;43412;-33.800;150.804;2023-04-08T02:06:22;29.40;78.20
57576;DHT22;43412;-33.800;150.804;2023-04-08T02:08:49;29.40;81.90
57576;DHT22;43412;-33.800;150.804;2023-04-08T02:11:16;29.40;78.70
57576;DHT22;43412;-33.800;150.804;2023-04-08T02:13:47;29.50;79.50
57576;DHT22;43412;-33.800;150.804;2023-04-08T02:16:28;29.70;80.10
57576;DHT22;43412;-33.800;150.804;2023-04-08T02:22:16;29.40;78.30
57576;DHT22;43412;-33.800;150.804;2023-04-08T02:24:44;28.70;78.60
57576;DHT22;43412;-33.800;150.804;2023-04-08T02:27:12;28.70;80.20
57576;DHT22;43412;-33.800;150.804;2023-04-08T02:29:40;28.60;77.60
57576;DHT22;43412;-33.800;150.804;2023-04-08T02:32:10;28.60;79.50
57576;DHT22;43412;-33.800;150.804;2023-04-08T02:34:40;28.70;80.20
57576;DHT22;43412;-33.800;150.804;2023-04-08T02:37:08;29.00;81.90
57576;DHT22;43412;-33.800;150.804;2023-04-08T02:39:35;29.30;79.50
57576;DHT22;43412;-33.800;150.804;2023-04-08T02:42:03;29.30;78.90
57576;DHT22;43412;-33.800;150.804;2023-04-08T02:44:31;29.20;77.90
57576;DHT22;43412;-33.800;150.804;2023-04-08T02:46:59;29.00;79.60
57576;DHT22;43412;-33.800;150.804;2023-04-08T02:49:26;29.00;78.80
57576;DHT22;43412;-33.800;150.804;2023-04-08T02:51:53;28.90;80.10
57576;DHT22;43412;-33.800;150.804;2023-04-08T02:54:21;29.00;79.30
57576;DHT22;43412;-33.800;150.804;2023-04-08T02:56:48;28.90;80.80
57576;DHT22;43412;-33.800;150.804;2023-04-08T02:59:15;29.10;80.60
57576;DHT22;43412;-33.800;150.804;2023-04-08T03:01:43;29.30;80.30
57576;DHT22;43412;-33.800;150.804;2023-04-08T03:04:10;29.50;81.30
57576;DHT22;43412;-33.800;150.804;2023-04-08T03:06:38;29.80;79.70
57576;DHT22;43412;-33.800;150.804;2023-04-08T03:09:05;29.10;78.60
57576;DHT22;43412;-33.800;150.804;2023-04-08T03:11:32;27.90;79.70
57576;DHT22;43412;-33.800;150.804;2023-04-08T03:14:00;27.40;81.00
57576;DHT22;43412;-33.800;150.804;2023-04-08T03:16:27;27.40;81.50
57576;DHT22;43412;-33.800;150.804;2023-04-08T03:18:55;27.60;81.40
57576;DHT22;43412;-33.800;150.804;2023-04-08T03:21:22;27.50;81.10
57576;DHT22;43412;-33.800;150.804;2023-04-08T03:23:50;27.00;82.00
57576;DHT22;43412;-33.800;150.804;2023-04-08T03:26:17;26.90;83.30
57576;DHT22;43412;-33.800;150.804;2023-04-08T03:28:44;26.70;81.40
57576;DHT22;43412;-33.800;150.804;2023-04-08T03:31:12;26.20;82.30
57576;DHT22;43412;-33.800;150.804;2023-04-08T03:33:39;26.10;82.40
57576;DHT22;43412;-33.800;150.804;2023-04-08T03:36:07;26.10;82.90
57576;DHT22;43412;-33.800;150.804;2023-04-08T03:38:34;26.00;83.50
57576;DHT22;43412;-33.800;150.804;2023-04-08T03:41:01;25.70;83.60
57576;DHT22;43412;-33.800;150.804;2023-04-08T03:43:28;25.50;84.70
57576;DHT22;43412;-33.800;150.804;2023-04-08T03:45:56;25.20;84.60
57576;DHT22;43412;-33.800;150.804;2023-04-08T03:48:23;25.00;84.70
57576;DHT22;43412;-33.800;150.804;2023-04-08T03:50:50;24.90;85.60
57576;DHT22;43412;-33.800;150.804;2023-04-08T03:53:18;25.00;85.50
57576;DHT22;43412;-33.800;150.804;2023-04-08T03:55:47;25.20;85.70
57576;DHT22;43412;-33.800;150.804;2023-04-08T03:58:16;25.10;85.20
57576;DHT22;43412;-33.800;150.804;2023-04-08T04:00:43;24.80;85.20
57576;DHT22;43412;-33.800;150.804;2023-04-08T04:03:10;24.70;87.00
57576;DHT22;43412;-33.800;150.804;2023-04-08T04:05:39;24.90;87.00
57576;DHT22;43412;-33.800;150.804;2023-04-08T04:08:06;25.10;85.50
57576;DHT22;43412;-33.800;150.804;2023-04-08T04:10:35;24.90;85.50
57576;DHT22;43412;-33.800;150.804;2023-04-08T04:13:02;24.90;86.00
57576;DHT22;43412;-33.800;150.804;2023-04-08T04:15:29;24.80;86.40
57576;DHT22;43412;-33.800;150.804;2023-04-08T04:17:57;24.60;86.60
57576;DHT22;43412;-33.800;150.804;2023-04-08T04:20:24;24.80;86.10
57576;DHT22;43412;-33.800;150.804;2023-04-08T04:22:51;25.00;86.20
57576;DHT22;43412;-33.800;150.804;2023-04-08T04:25:19;24.90;86.00
57576;DHT22;43412;-33.800;150.804;2023-04-08T04:27:46;24.80;86.10
57576;DHT22;43412;-33.800;150.804;2023-04-08T04:30:13;24.80;87.50
57576;DHT22;43412;-33.800;150.804;2023-04-08T04:32:41;24.70;87.10
57576;DHT22;43412;-33.800;150.804;2023-04-08T04:35:12;24.50;87.00
57576;DHT22;43412;-33.800;150.804;2023-04-08T04:37:40;24.40;87.20
57576;DHT22;43412;-33.800;150.804;2023-04-08T04:40:07;24.20;88.00
57576;DHT22;43412;-33.800;150.804;2023-04-08T04:42:34;24.10;87.20
57576;DHT22;43412;-33.800;150.804;2023-04-08T04:45:02;23.90;87.40
57576;DHT22;43412;-33.800;150.804;2023-04-08T04:47:29;24.10;88.40
57576;DHT22;43412;-33.800;150.804;2023-04-08T04:49:58;24.20;88.40
57576;DHT22;43412;-33.800;150.804;2023-04-08T04:52:25;24.40;87.70
57576;DHT22;43412;-33.800;150.804;2023-04-08T04:54:52;24.40;87.10
57576;DHT22;43412;-33.800;150.804;2023-04-08T04:57:19;24.70;87.90
57576;DHT22;43412;-33.800;150.804;2023-04-08T04:59:47;24.80;86.80
57576;DHT22;43412;-33.800;150.804;2023-04-08T05:02:14;25.00;85.60
57576;DHT22;43412;-33.800;150.804;2023-04-08T05:04:42;25.10;85.80
57576;DHT22;43412;-33.800;150.804;2023-04-08T05:07:09;25.30;86.80
57576;DHT22;43412;-33.800;150.804;2023-04-08T05:09:36;25.40;86.50
57576;DHT22;43412;-33.800;150.804;2023-04-08T05:12:04;25.40;86.70
57576;DHT22;43412;-33.800;150.804;2023-04-08T05:14:31;25.40;86.10
57576;DHT22;43412;-33.800;150.804;2023-04-08T05:16:58;25.40;85.60
57576;DHT22;43412;-33.800;150.804;2023-04-08T05:19:26;25.40;85.80
57576;DHT22;43412;-33.800;150.804;2023-04-08T05:21:53;25.40;85.80
57576;DHT22;43412;-33.800;150.804;2023-04-08T05:24:21;25.30;86.10
57576;DHT22;43412;-33.800;150.804;2023-04-08T05:26:48;25.10;85.20
57576;DHT22;43412;-33.800;150.804;2023-04-08T05:29:18;25.00;86.00
57576;DHT22;43412;-33.800;150.804;2023-04-08T05:31:47;24.90;85.40
57576;DHT22;43412;-33.800;150.804;2023-04-08T05:34:14;24.70;85.90
57576;DHT22;43412;-33.800;150.804;2023-04-08T05:36:48;24.70;86.60
57576;DHT22;43412;-33.800;150.804;2023-04-08T05:39:19;24.70;86.60
57576;DHT22;43412;-33.800;150.804;2023-04-08T05:41:46;24.80;86.30
57576;DHT22;43412;-33.800;150.804;2023-04-08T05:44:14;24.90;86.90
57576;DHT22;43412;-33.800;150.804;2023-04-08T05:46:41;25.10;86.00
57576;DHT22;43412;-33.800;150.804;2023-04-08T05:49:08;25.00;85.90
57576;DHT22;43412;-33.800;150.804;2023-04-08T05:51:37;24.80;86.30
57576;DHT22;43412;-33.800;150.804;2023-04-08T05:54:05;24.60;86.10
57576;DHT22;43412;-33.800;150.804;2023-04-08T05:56:32;24.30;86.00
57576;DHT22;43412;-33.800;150.804;2023-04-08T05:59:00;24.00;87.20
57576;DHT22;43412;-33.800;150.804;2023-04-08T06:01:27;23.70;86.80
57576;DHT22;43412;-33.800;150.804;2023-04-08T06:03:55;23.70;87.60
57576;DHT22;43412;-33.800;150.804;2023-04-08T06:06:22;23.80;87.60
57576;DHT22;43412;-33.800;150.804;2023-04-08T06:08:51;24.10;87.00
57576;DHT22;43412;-33.800;150.804;2023-04-08T06:11:18;24.20;86.90
57576;DHT22;43412;-33.800;150.804;2023-04-08T06:13:45;24.30;86.50
57576;DHT22;43412;-33.800;150.804;2023-04-08T06:16:16;24.50;86.10
57576;DHT22;43412;-33.800;150.804;2023-04-08T06:18:43;24.60;86.30
57576;DHT22;43412;-33.800;150.804;2023-04-08T06:21:11;24.60;86.10
57576;DHT22;43412;-33.800;150.804;2023-04-08T06:23:38;24.60;84.90
57576;DHT22;43412;-33.800;150.804;2023-04-08T06:26:05;24.50;85.70
57576;DHT22;43412;-33.800;150.804;2023-04-08T06:28:33;24.50;85.50
57576;DHT22;43412;-33.800;150.804;2023-04-08T06:31:01;24.50;87.60
57576;DHT22;43412;-33.800;150.804;2023-04-08T06:33:28;24.60;87.00
57576;DHT22;43412;-33.800;150.804;2023-04-08T06:36:02;24.60;86.00
57576;DHT22;43412;-33.800;150.804;2023-04-08T06:38:30;24.60;85.90
57576;DHT22;43412;-33.800;150.804;2023-04-08T06:41:06;24.50;85.60
57576;DHT22;43412;-33.800;150.804;2023-04-08T06:43:34;24.40;85.40
57576;DHT22;43412;-33.800;150.804;2023-04-08T06:46:03;24.30;86.00
57576;DHT22;43412;-33.800;150.804;2023-04-08T06:48:30;24.20;86.90
57576;DHT22;43412;-33.800;150.804;2023-04-08T06:50:59;24.10;87.10
57576;DHT22;43412;-33.800;150.804;2023-04-08T06:53:27;24.00;87.20
57576;DHT22;43412;-33.800;150.804;2023-04-08T06:55:59;23.80;87.30
57576;DHT22;43412;-33.800;150.804;2023-04-08T06:58:26;23.70;87.10
57576;DHT22;43412;-33.800;150.804;2023-04-08T07:00:55;23.50;88.00
57576;DHT22;43412;-33.800;150.804;2023-04-08T07:03:23;23.30;88.30
57576;DHT22;43412;-33.800;150.804;2023-04-08T07:05:51;23.10;89.00
57576;DHT22;43412;-33.800;150.804;2023-04-08T07:08:18;23.00;89.20
57576;DHT22;43412;-33.800;150.804;2023-04-08T07:10:45;22.80;90.10
57576;DHT22;43412;-33.800;150.804;2023-04-08T07:13:12;22.70;90.20
57576;DHT22;43412;-33.800;150.804;2023-04-08T07:15:40;22.60;90.50
57576;DHT22;43412;-33.800;150.804;2023-04-08T07:18:08;22.50;90.60
57576;DHT22;43412;-33.800;150.804;2023-04-08T07:20:35;22.20;90.80
57576;DHT22;43412;-33.800;150.804;2023-04-08T07:23:04;22.10;91.20
57576;DHT22;43412;-33.800;150.804;2023-04-08T07:25:32;21.90;91.10
57576;DHT22;43412;-33.800;150.804;2023-04-08T07:28:03;21.80;91.50
57576;DHT22;43412;-33.800;150.804;2023-04-08T07:30:30;21.60;91.30
57576;DHT22;43412;-33.800;150.804;2023-04-08T07:32:57;21.60;91.60
57576;DHT22;43412;-33.800;150.804;2023-04-08T07:35:25;21.50;91.90
57576;DHT22;43412;-33.800;150.804;2023-04-08T07:37:53;21.40;91.40
57576;DHT22;43412;-33.800;150.804;2023-04-08T07:40:20;21.30;91.40
57576;DHT22;43412;-33.800;150.804;2023-04-08T07:42:48;21.30;91.60
57576;DHT22;43412;-33.800;150.804;2023-04-08T07:45:15;21.10;91.70
57576;DHT22;43412;-33.800;150.804;2023-04-08T07:47:43;21.00;91.80
57576;DHT22;43412;-33.800;150.804;2023-04-08T07:50:11;20.90;92.20
57576;DHT22;43412;-33.800;150.804;2023-04-08T07:52:38;20.80;92.20
57576;DHT22;43412;-33.800;150.804;2023-04-08T07:55:06;20.70;92.30
57576;DHT22;43412;-33.800;150.804;2023-04-08T07:57:34;20.60;92.60
57576;DHT22;43412;-33.800;150.804;2023-04-08T08:00:01;20.50;92.60
57576;DHT22;43412;-33.800;150.804;2023-04-08T08:02:30;20.40;92.70
57576;DHT22;43412;-33.800;150.804;2023-04-08T08:04:57;20.30;92.90
57576;DHT22;43412;-33.800;150.804;2023-04-08T08:07:26;20.30;92.50
57576;DHT22;43412;-33.800;150.804;2023-04-08T08:09:54;20.20;92.70
57576;DHT22;43412;-33.800;150.804;2023-04-08T08:12:21;20.10;93.10
57576;DHT22;43412;-33.800;150.804;2023-04-08T08:14:48;20.10;93.20
57576;DHT22;43412;-33.800;150.804;2023-04-08T08:17:17;20.00;93.10
57576;DHT22;43412;-33.800;150.804;2023-04-08T08:19:44;19.90;93.00
57576;DHT22;43412;-33.800;150.804;2023-04-08T08:22:12;19.90;93.20
57576;DHT22;43412;-33.800;150.804;2023-04-08T08:24:39;19.80;93.00
57576;DHT22;43412;-33.800;150.804;2023-04-08T08:27:08;19.80;93.10
57576;DHT22;43412;-33.800;150.804;2023-04-08T08:29:36;19.70;93.20
57576;DHT22;43412;-33.800;150.804;2023-04-08T08:32:03;19.70;93.10
57576;DHT22;43412;-33.800;150.804;2023-04-08T08:34:31;19.70;93.30
57576;DHT22;43412;-33.800;150.804;2023-04-08T08:36:59;19.60;93.70
57576;DHT22;43412;-33.800;150.804;2023-04-08T08:39:26;19.60;93.30
57576;DHT22;43412;-33.800;150.804;2023-04-08T08:41:53;19.60;93.10
57576;DHT22;43412;-33.800;150.804;2023-04-08T08:44:22;19.50;93.20
57576;DHT22;43412;-33.800;150.804;2023-04-08T08:46:49;19.50;93.10
57576;DHT22;43412;-33.800;150.804;2023-04-08T08:49:17;19.40;93.30
57576;DHT22;43412;-33.800;150.804;2023-04-08T08:51:48;19.40;93.30
57576;DHT22;43412;-33.800;150.804;2023-04-08T08:54:16;19.30;93.40
57576;DHT22;43412;-33.800;150.804;2023-04-08T08:56:43;19.30;93.60
57576;DHT22;43412;-33.800;150.804;2023-04-08T08:59:11;19.20;93.70
57576;DHT22;43412;-33.800;150.804;2023-04-08T09:01:39;19.20;93.60
57576;DHT22;43412;-33.800;150.804;2023-04-08T09:06:35;19.00;94.10
57576;DHT22;43412;-33.800;150.804;2023-04-08T09:09:02;18.90;94.40
57576;DHT22;43412;-33.800;150.804;2023-04-08T09:11:44;18.80;94.50
57576;DHT22;43412;-33.800;150.804;2023-04-08T09:14:23;18.80;94.20
57576;DHT22;43412;-33.800;150.804;2023-04-08T09:16:52;18.80;94.00
57576;DHT22;43412;-33.800;150.804;2023-04-08T09:19:19;18.80;94.00
57576;DHT22;43412;-33.800;150.804;2023-04-08T09:22:04;18.70;94.00
57576;DHT22;43412;-33.800;150.804;2023-04-08T09:24:32;18.70;93.90
57576;DHT22;43412;-33.800;150.804;2023-04-08T09:26:59;18.70;94.20
57576;DHT22;43412;-33.800;150.804;2023-04-08T09:29:27;18.70;94.20
57576;DHT22;43412;-33.800;150.804;2023-04-08T09:31:56;18.80;93.80
57576;DHT22;43412;-33.800;150.804;2023-04-08T09:34:24;18.80;93.90
57576;DHT22;43412;-33.800;150.804;2023-04-08T09:36:53;18.80;93.80
57576;DHT22;43412;-33.800;150.804;2023-04-08T09:39:21;18.80;93.60
57576;DHT22;43412;-33.800;150.804;2023-04-08T09:41:50;18.80;93.60
57576;DHT22;43412;-33.800;150.804;2023-04-08T09:44:19;18.80;93.50
57576;DHT22;43412;-33.800;150.804;2023-04-08T09:49:28;18.80;93.50
57576;DHT22;43412;-33.800;150.804;2023-04-08T09:55:03;18.80;93.30
57576;DHT22;43412;-33.800;150.804;2023-04-08T09:58:03;18.80;93.30
57576;DHT22;43412;-33.800;150.804;2023-04-08T10:00:40;18.80;93.50
57576;DHT22;43412;-33.800;150.804;2023-04-08T10:03:38;18.70;93.20
57576;DHT22;43412;-33.800;150.804;2023-04-08T10:06:08;18.70;93.30
57576;DHT22;43412;-33.800;150.804;2023-04-08T10:08:37;18.70;93.50
57576;DHT22;43412;-33.800;150.804;2023-04-08T10:11:05;18.60;93.10
57576;DHT22;43412;-33.800;150.804;2023-04-08T10:13:33;18.60;93.40
57576;DHT22;43412;-33.800;150.804;2023-04-08T10:16:19;18.60;93.10
57576;DHT22;43412;-33.800;150.804;2023-04-08T10:18:51;18.60;93.00
57576;DHT22;43412;-33.800;150.804;2023-04-08T10:21:37;18.60;93.20
57576;DHT22;43412;-33.800;150.804;2023-04-08T10:24:11;18.50;93.10
57576;DHT22;43412;-33.800;150.804;2023-04-08T10:26:40;18.50;93.30
57576;DHT22;43412;-33.800;150.804;2023-04-08T10:29:29;18.50;93.30
57576;DHT22;43412;-33.800;150.804;2023-04-08T10:31:57;18.50;93.40
57576;DHT22;43412;-33.800;150.804;2023-04-08T10:34:25;18.40;93.40
57576;DHT22;43412;-33.800;150.804;2023-04-08T10:36:54;18.30;93.30
57576;DHT22;43412;-33.800;150.804;2023-04-08T10:39:24;18.30;93.60
57576;DHT22;43412;-33.800;150.804;2023-04-08T10:41:52;18.30;93.60
57576;DHT22;43412;-33.800;150.804;2023-04-08T10:44:22;18.20;93.80
57576;DHT22;43412;-33.800;150.804;2023-04-08T10:46:50;18.10;94.00
57576;DHT22;43412;-33.800;150.804;2023-04-08T10:49:18;18.00;94.00
57576;DHT22;43412;-33.800;150.804;2023-04-08T10:51:47;18.00;93.90
57576;DHT22;43412;-33.800;150.804;2023-04-08T10:54:16;17.90;94.00
57576;DHT22;43412;-33.800;150.804;2023-04-08T10:56:49;17.90;93.80
57576;DHT22;43412;-33.800;150.804;2023-04-08T10:59:29;17.90;93.70
57576;DHT22;43412;-33.800;150.804;2023-04-08T11:01:58;17.90;93.60
57576;DHT22;43412;-33.800;150.804;2023-04-08T11:04:26;17.90;93.50
57576;DHT22;43412;-33.800;150.804;2023-04-08T11:06:54;17.90;93.60
57576;DHT22;43412;-33.800;150.804;2023-04-08T11:09:21;17.80;93.50
57576;DHT22;43412;-33.800;150.804;2023-04-08T11:11:48;17.80;93.40
57576;DHT22;43412;-33.800;150.804;2023-04-08T11:14:17;17.80;93.10
57576;DHT22;43412;-33.800;150.804;2023-04-08T11:16:47;17.90;93.10
57576;DHT22;43412;-33.800;150.804;2023-04-08T11:19:14;17.90;93.00
57576;DHT22;43412;-33.800;150.804;2023-04-08T11:21:42;18.00;92.70
57576;DHT22;43412;-33.800;150.804;2023-04-08T11:24:10;18.00;92.80
57576;DHT22;43412;-33.800;150.804;2023-04-08T11:26:39;18.00;92.90
57576;DHT22;43412;-33.800;150.804;2023-04-08T11:29:11;17.90;93.00
57576;DHT22;43412;-33.800;150.804;2023-04-08T11:31:43;17.90;92.80
57576;DHT22;43412;-33.800;150.804;2023-04-08T11:34:10;17.90;92.90
57576;DHT22;43412;-33.800;150.804;2023-04-08T11:36:40;17.80;92.90
57576;DHT22;43412;-33.800;150.804;2023-04-08T11:39:09;17.80;93.00
57576;DHT22;43412;-33.800;150.804;2023-04-08T11:41:38;17.80;93.10
57576;DHT22;43412;-33.800;150.804;2023-04-08T11:44:06;17.60;93.20
57576;DHT22;43412;-33.800;150.804;2023-04-08T11:46:34;17.60;93.10
57576;DHT22;43412;-33.800;150.804;2023-04-08T11:49:07;17.60;93.10
57576;DHT22;43412;-33.800;150.804;2023-04-08T11:51:56;17.60;92.90
57576;DHT22;43412;-33.800;150.804;2023-04-08T11:54:33;17.60;92.90
57576;DHT22;43412;-33.800;150.804;2023-04-08T11:57:00;17.50;92.90
57576;DHT22;43412;-33.800;150.804;2023-04-08T11:59:28;17.40;93.10
57576;DHT22;43412;-33.800;150.804;2023-04-08T12:01:55;17.30;93.10
57576;DHT22;43412;-33.800;150.804;2023-04-08T12:04:23;17.30;93.20
57576;DHT22;43412;-33.800;150.804;2023-04-08T12:06:50;17.20;93.30
57576;DHT22;43412;-33.800;150.804;2023-04-08T12:09:18;17.10;93.40
57576;DHT22;43412;-33.800;150.804;2023-04-08T12:11:46;17.00;93.70
57576;DHT22;43412;-33.800;150.804;2023-04-08T12:14:14;16.90;93.90
57576;DHT22;43412;-33.800;150.804;2023-04-08T12:16:41;16.90;94.10
57576;DHT22;43412;-33.800;150.804;2023-04-08T12:19:09;16.80;93.90
57576;DHT22;43412;-33.800;150.804;2023-04-08T12:21:36;16.90;94.00
57576;DHT22;43412;-33.800;150.804;2023-04-08T12:24:04;16.80;94.40
57576;DHT22;43412;-33.800;150.804;2023-04-08T12:26:32;16.80;94.60
57576;DHT22;43412;-33.800;150.804;2023-04-08T12:28:59;16.60;95.20
57576;DHT22;43412;-33.800;150.804;2023-04-08T12:31:27;16.50;95.70
57576;DHT22;43412;-33.800;150.804;2023-04-08T12:33:54;16.40;96.30
57576;DHT22;43412;-33.800;150.804;2023-04-08T12:36:21;16.20;96.80
57576;DHT22;43412;-33.800;150.804;2023-04-08T12:38:49;16.10;97.00
57576;DHT22;43412;-33.800;150.804;2023-04-08T12:41:16;16.00;97.40
57576;DHT22;43412;-33.800;150.804;2023-04-08T12:43:43;15.80;97.70
57576;DHT22;43412;-33.800;150.804;2023-04-08T12:46:11;15.80;98.20
57576;DHT22;43412;-33.800;150.804;2023-04-08T12:48:38;15.70;98.60
57576;DHT22;43412;-33.800;150.804;2023-04-08T12:51:06;15.60;98.80
57576;DHT22;43412;-33.800;150.804;2023-04-08T12:53:35;15.50;99.20
57576;DHT22;43412;-33.800;150.804;2023-04-08T12:56:03;15.50;99.40
57576;DHT22;43412;-33.800;150.804;2023-04-08T12:58:30;15.40;99.50
57576;DHT22;43412;-33.800;150.804;2023-04-08T13:00:57;15.30;99.50
57576;DHT22;43412;-33.800;150.804;2023-04-08T13:03:25;15.30;99.80
57576;DHT22;43412;-33.800;150.804;2023-04-08T13:05:55;15.30;99.20
57576;DHT22;43412;-33.800;150.804;2023-04-08T13:08:24;15.40;99.00
57576;DHT22;43412;-33.800;150.804;2023-04-08T13:10:52;15.50;98.60
57576;DHT22;43412;-33.800;150.804;2023-04-08T13:13:20;15.50;98.60
57576;DHT22;43412;-33.800;150.804;2023-04-08T13:15:47;15.50;99.00
57576;DHT22;43412;-33.800;150.804;2023-04-08T13:18:15;15.50;98.50
57576;DHT22;43412;-33.800;150.804;2023-04-08T13:20:42;15.70;97.80
57576;DHT22;43412;-33.800;150.804;2023-04-08T13:23:09;15.90;97.80
57576;DHT22;43412;-33.800;150.804;2023-04-08T13:25:37;15.90;97.60
57576;DHT22;43412;-33.800;150.804;2023-04-08T13:28:04;15.90;97.80
57576;DHT22;43412;-33.800;150.804;2023-04-08T13:30:32;15.80;97.80
57576;DHT22;43412;-33.800;150.804;2023-04-08T13:32:59;15.80;97.90
57576;DHT22;43412;-33.800;150.804;2023-04-08T13:35:26;15.80;98.00
57576;DHT22;43412;-33.800;150.804;2023-04-08T13:37:54;15.70;98.10
57576;DHT22;43412;-33.800;150.804;2023-04-08T13:40:21;15.70;98.30
57576;DHT22;43412;-33.800;150.804;2023-04-08T13:42:49;15.70;99.00
57576;DHT22;43412;-33.800;150.804;2023-04-08T13:45:17;15.60;99.00
57576;DHT22;43412;-33.800;150.804;2023-04-08T13:47:45;15.50;99.40
57576;DHT22;43412;-33.800;150.804;2023-04-08T13:50:13;15.40;99.60
57576;DHT22;43412;-33.800;150.804;2023-04-08T13:52:40;15.30;99.90
57576;DHT22;43412;-33.800;150.804;2023-04-08T13:55:08;15.20;99.90
57576;DHT22;43412;-33.800;150.804;2023-04-08T13:57:35;15.10;99.90
57576;DHT22;43412;-33.800;150.804;2023-04-08T14:00:02;15.10;99.90
57576;DHT22;43412;-33.800;150.804;2023-04-08T14:02:30;15.10;99.90
57576;DHT22;43412;-33.800;150.804;2023-04-08T14:04:58;15.00;99.90
57576;DHT22;43412;-33.800;150.804;2023-04-08T14:07:25;14.90;99.90
57576;DHT22;43412;-33.800;150.804;2023-04-08T14:09:52;14.80;99.90
57576;DHT22;43412;-33.800;150.804;2023-04-08T14:12:20;14.70;99.90
57576;DHT22;43412;-33.800;150.804;2023-04-08T14:14:47;14.70;99.90
57576;DHT22;43412;-33.800;150.804;2023-04-08T14:17:14;14.60;99.90
57576;DHT22;43412;-33.800;150.804;2023-04-08T14:19:42;14.50;99.90
57576;DHT22;43412;-33.800;150.804;2023-04-08T14:22:09;14.50;99.90
57576;DHT22;43412;-33.800;150.804;2023-04-08T14:24:38;14.50;99.90
57576;DHT22;43412;-33.800;150.804;2023-04-08T14:27:05;14.60;99.90
57576;DHT22;43412;-33.800;150.804;2023-04-08T14:29:33;14.70;99.90
57576;DHT22;43412;-33.800;150.804;2023-04-08T14:32:00;15.00;99.90
57576;DHT22;43412;-33.800;150.804;2023-04-08T14:34:27;15.20;99.90
57576;DHT22;43412;-33.800;150.804;2023-04-08T14:36:54;15.50;99.90
57576;DHT22;43412;-33.800;150.804;2023-04-08T14:39:22;15.60;99.90
57576;DHT22;43412;-33.800;150.804;2023-04-08T14:41:50;15.80;99.20
57576;DHT22;43412;-33.800;150.804;2023-04-08T14:44:17;15.90;98.10
57576;DHT22;43412;-33.800;150.804;2023-04-08T14:46:44;16.10;97.60
57576;DHT22;43412;-33.800;150.804;2023-04-08T14:49:12;16.30;96.90
57576;DHT22;43412;-33.800;150.804;2023-04-08T14:51:39;16.50;96.60
57576;DHT22;43412;-33.800;150.804;2023-04-08T14:54:07;16.60;96.00
57576;DHT22;43412;-33.800;150.804;2023-04-08T14:56:34;16.60;95.80
57576;DHT22;43412;-33.800;150.804;2023-04-08T14:59:02;16.60;95.80
57576;DHT22;43412;-33.800;150.804;2023-04-08T15:01:29;16.60;95.70
57576;DHT22;43412;-33.800;150.804;2023-04-08T15:03:59;16.50;95.50
57576;DHT22;43412;-33.800;150.804;2023-04-08T15:06:26;16.50;95.60
57576;DHT22;43412;-33.800;150.804;2023-04-08T15:08:54;16.50;95.70
57576;DHT22;43412;-33.800;150.804;2023-04-08T15:11:21;16.50;95.40